sensor_id;sensor_type;location;lat;lon;timestamp;temperature;humidity
18073;DHT22;9161;47.348;9.648;2023-01-25T00:00:36;-0.10;99.90
18073;DHT22;9161;47.348;9.648;2023-01-25T00:05:39;-0.20;99.90
18073;DHT22;9161;47.348;9.648;2023-01-25T00:10:41;-0.20;99.90
18073;DHT22;9161;47.348;9.648;2023-01-25T00:15:45;-0.20;99.90
18073;DHT22;9161;47.348;9.648;2023-01-25T00:20:47;-0.20;99.90
18073;DHT22;9161;47.348;9.648;2023-01-25T00:25:56;-0.20;99.90
18073;DHT22;9161;47.348;9.648;2023-01-25T00:31:00;-0.30;99.90
18073;DHT22;9161;47.348;9.648;2023-01-25T00:36:27;-0.20;99.90
18073;DHT22;9161;47.348;9.648;2023-01-25T00:41:32;-0.20;99.90
18073;DHT22;9161;47.348;9.648;2023-01-25T00:46:35;-0.20;99.90
18073;DHT22;9161;47.348;9.648;2023-01-25T00:51:37;-0.20;99.90
18073;DHT22;9161;47.348;9.648;2023-01-25T00:56:40;-0.20;99.90
18073;DHT22;9161;47.348;9.648;2023-01-25T01:01:43;-0.20;99.90
18073;DHT22;9161;47.348;9.648;2023-01-25T01:06:46;-0.20;99.90
18073;DHT22;9161;47.348;9.648;2023-01-25T01:11:49;-0.30;99.90
18073;DHT22;9161;47.348;9.648;2023-01-25T01:16:52;-0.40;99.90
18073;DHT22;9161;47.348;9.648;2023-01-25T01:21:57;-0.40;99.90
18073;DHT22;9161;47.348;9.648;2023-01-25T01:27:00;-0.40;99.90
18073;DHT22;9161;47.348;9.648;2023-01-25T01:32:04;-0.30;99.90
18073;DHT22;9161;47.348;9.648;2023-01-25T01:37:06;-0.30;99.90
18073;DHT22;9161;47.348;9.648;2023-01-25T01:42:08;-0.30;99.90
18073;DHT22;9161;47.348;9.648;2023-01-25T01:47:16;-0.20;99.90
18073;DHT22;9161;47.348;9.648;2023-01-25T01:52:22;-0.20;99.90
18073;DHT22;9161;47.348;9.648;2023-01-25T01:57:30;-0.20;99.90
18073;DHT22;9161;47.348;9.648;2023-01-25T02:02:34;-0.10;99.90
18073;DHT22;9161;47.348;9.648;2023-01-25T02:07:38;-0.20;99.90
18073;DHT22;9161;47.348;9.648;2023-01-25T02:12:40;-0.20;99.90
18073;DHT22;9161;47.348;9.648;2023-01-25T02:17:45;-0.20;99.90
18073;DHT22;9161;47.348;9.648;2023-01-25T02:22:55;-0.10;99.90
18073;DHT22;9161;47.348;9.648;2023-01-25T02:28:03;-0.20;99.90
18073;DHT22;9161;47.348;9.648;2023-01-25T02:33:07;-0.20;99.90
18073;DHT22;9161;47.348;9.648;2023-01-25T02:38:12;-0.20;99.90
18073;DHT22;9161;47.348;9.648;2023-01-25T02:43:16;-0.20;99.90
18073;DHT22;9161;47.348;9.648;2023-01-25T02:48:18;-0.20;99.90
18073;DHT22;9161;47.348;9.648;2023-01-25T02:53:21;-0.20;99.90
18073;DHT22;9161;47.348;9.648;2023-01-25T02:58:24;-0.20;99.90
18073;DHT22;9161;47.348;9.648;2023-01-25T03:03:26;-0.20;99.90
18073;DHT22;9161;47.348;9.648;2023-01-25T03:08:29;-0.20;99.90
18073;DHT22;9161;47.348;9.648;2023-01-25T03:13:33;-0.20;99.90
18073;DHT22;9161;47.348;9.648;2023-01-25T03:18:36;-0.20;99.90
18073;DHT22;9161;47.348;9.648;2023-01-25T03:23:39;-0.20;99.90
18073;DHT22;9161;47.348;9.648;2023-01-25T03:28:43;-0.20;99.90
18073;DHT22;9161;47.348;9.648;2023-01-25T03:33:45;-0.20;99.90
18073;DHT22;9161;47.348;9.648;2023-01-25T03:38:47;-0.20;99.90
18073;DHT22;9161;47.348;9.648;2023-01-25T03:43:51;-0.20;99.90
18073;DHT22;9161;47.348;9.648;2023-01-25T03:48:53;-0.20;99.90
18073;DHT22;9161;47.348;9.648;2023-01-25T03:53:55;-0.30;99.90
18073;DHT22;9161;47.348;9.648;2023-01-25T03:58:58;-0.20;99.90
18073;DHT22;9161;47.348;9.648;2023-01-25T04:04:01;-0.30;99.90
18073;DHT22;9161;47.348;9.648;2023-01-25T04:09:03;-0.20;99.90
18073;DHT22;9161;47.348;9.648;2023-01-25T04:14:08;-0.20;99.90
18073;DHT22;9161;47.348;9.648;2023-01-25T04:19:11;-0.10;99.90
18073;DHT22;9161;47.348;9.648;2023-01-25T04:24:13;-0.20;99.90
18073;DHT22;9161;47.348;9.648;2023-01-25T04:29:17;-0.20;99.90
18073;DHT22;9161;47.348;9.648;2023-01-25T04:34:34;-0.20;99.90
18073;DHT22;9161;47.348;9.648;2023-01-25T04:39:37;-0.20;99.90
18073;DHT22;9161;47.348;9.648;2023-01-25T04:44:40;-0.20;99.90
18073;DHT22;9161;47.348;9.648;2023-01-25T04:49:42;-0.20;99.90
18073;DHT22;9161;47.348;9.648;2023-01-25T04:54:45;-0.20;99.90
18073;DHT22;9161;47.348;9.648;2023-01-25T04:59:49;-0.20;99.90
18073;DHT22;9161;47.348;9.648;2023-01-25T05:04:51;-0.20;99.90
18073;DHT22;9161;47.348;9.648;2023-01-25T05:09:53;-0.20;99.90
18073;DHT22;9161;47.348;9.648;2023-01-25T05:14:56;-0.20;99.90
18073;DHT22;9161;47.348;9.648;2023-01-25T05:19:59;-0.10;99.90
18073;DHT22;9161;47.348;9.648;2023-01-25T05:25:01;-0.20;99.90
18073;DHT22;9161;47.348;9.648;2023-01-25T05:30:06;-0.20;99.90
18073;DHT22;9161;47.348;9.648;2023-01-25T05:35:08;-0.20;99.90
18073;DHT22;9161;47.348;9.648;2023-01-25T05:40:12;-0.20;99.90
18073;DHT22;9161;47.348;9.648;2023-01-25T05:45:15;-0.30;99.90
18073;DHT22;9161;47.348;9.648;2023-01-25T05:50:18;-0.20;99.90
18073;DHT22;9161;47.348;9.648;2023-01-25T05:55:20;-0.30;99.90
18073;DHT22;9161;47.348;9.648;2023-01-25T06:00:24;-0.30;99.90
18073;DHT22;9161;47.348;9.648;2023-01-25T06:05:26;-0.30;99.90
18073;DHT22;9161;47.348;9.648;2023-01-25T06:10:28;-0.30;99.90
18073;DHT22;9161;47.348;9.648;2023-01-25T06:15:32;-0.30;99.90
18073;DHT22;9161;47.348;9.648;2023-01-25T06:20:34;-0.20;99.90
18073;DHT22;9161;47.348;9.648;2023-01-25T06:25:37;-0.20;99.90
18073;DHT22;9161;47.348;9.648;2023-01-25T06:30:40;-0.20;99.90
18073;DHT22;9161;47.348;9.648;2023-01-25T06:35:42;-0.20;99.90
18073;DHT22;9161;47.348;9.648;2023-01-25T06:40:44;-0.20;99.90
18073;DHT22;9161;47.348;9.648;2023-01-25T06:45:48;-0.30;99.90
18073;DHT22;9161;47.348;9.648;2023-01-25T06:50:53;-0.40;99.90
18073;DHT22;9161;47.348;9.648;2023-01-25T06:55:57;-0.50;99.90
18073;DHT22;9161;47.348;9.648;2023-01-25T07:01:03;-0.60;99.90
18073;DHT22;9161;47.348;9.648;2023-01-25T07:06:06;-0.60;99.90
18073;DHT22;9161;47.348;9.648;2023-01-25T07:11:10;-0.60;99.90
18073;DHT22;9161;47.348;9.648;2023-01-25T07:16:16;-0.60;99.90
18073;DHT22;9161;47.348;9.648;2023-01-25T07:21:21;-0.50;99.90
18073;DHT22;9161;47.348;9.648;2023-01-25T07:26:24;-0.40;99.90
18073;DHT22;9161;47.348;9.648;2023-01-25T07:31:28;-0.30;99.90
18073;DHT22;9161;47.348;9.648;2023-01-25T07:36:30;-0.30;99.90
18073;DHT22;9161;47.348;9.648;2023-01-25T07:41:33;-0.10;99.90
18073;DHT22;9161;47.348;9.648;2023-01-25T07:46:37;0.00;99.90
18073;DHT22;9161;47.348;9.648;2023-01-25T07:51:39;0.10;99.90
18073;DHT22;9161;47.348;9.648;2023-01-25T07:56:41;0.20;99.90
18073;DHT22;9161;47.348;9.648;2023-01-25T08:01:45;0.30;99.90
18073;DHT22;9161;47.348;9.648;2023-01-25T08:06:47;0.50;99.90
18073;DHT22;9161;47.348;9.648;2023-01-25T08:11:49;0.60;99.90
18073;DHT22;9161;47.348;9.648;2023-01-25T08:16:54;0.70;99.90
18073;DHT22;9161;47.348;9.648;2023-01-25T08:21:56;0.80;99.90
18073;DHT22;9161;47.348;9.648;2023-01-25T08:26:58;0.90;99.90
18073;DHT22;9161;47.348;9.648;2023-01-25T08:32:02;1.00;99.90
18073;DHT22;9161;47.348;9.648;2023-01-25T08:37:06;1.10;99.90
18073;DHT22;9161;47.348;9.648;2023-01-25T08:42:08;1.20;99.90
18073;DHT22;9161;47.348;9.648;2023-01-25T08:47:11;1.20;99.90
18073;DHT22;9161;47.348;9.648;2023-01-25T08:52:14;1.80;99.90
18073;DHT22;9161;47.348;9.648;2023-01-25T08:57:16;1.90;99.90
18073;DHT22;9161;47.348;9.648;2023-01-25T09:02:20;1.80;99.90
18073;DHT22;9161;47.348;9.648;2023-01-25T09:07:22;1.90;99.90
18073;DHT22;9161;47.348;9.648;2023-01-25T09:12:24;1.50;99.90
18073;DHT22;9161;47.348;9.648;2023-01-25T09:17:28;1.60;99.90
18073;DHT22;9161;47.348;9.648;2023-01-25T09:22:30;1.50;99.90
18073;DHT22;9161;47.348;9.648;2023-01-25T09:27:32;1.60;99.90
18073;DHT22;9161;47.348;9.648;2023-01-25T09:32:36;1.80;99.90
18073;DHT22;9161;47.348;9.648;2023-01-25T09:37:40;2.20;99.90
18073;DHT22;9161;47.348;9.648;2023-01-25T09:42:57;2.80;99.90
18073;DHT22;9161;47.348;9.648;2023-01-25T09:48:14;2.10;99.90
18073;DHT22;9161;47.348;9.648;2023-01-25T09:53:26;2.10;99.90
18073;DHT22;9161;47.348;9.648;2023-01-25T09:58:33;2.50;99.90
18073;DHT22;9161;47.348;9.648;2023-01-25T10:03:46;2.80;99.90
18073;DHT22;9161;47.348;9.648;2023-01-25T10:08:55;2.70;99.90
18073;DHT22;9161;47.348;9.648;2023-01-25T10:13:59;2.40;99.90
18073;DHT22;9161;47.348;9.648;2023-01-25T10:19:13;3.30;99.90
18073;DHT22;9161;47.348;9.648;2023-01-25T10:24:29;3.90;99.90
18073;DHT22;9161;47.348;9.648;2023-01-25T10:29:34;4.30;99.90
18073;DHT22;9161;47.348;9.648;2023-01-25T10:34:43;4.70;99.90
18073;DHT22;9161;47.348;9.648;2023-01-25T10:40:00;5.50;99.90
18073;DHT22;9161;47.348;9.648;2023-01-25T10:45:10;5.10;99.90
18073;DHT22;9161;47.348;9.648;2023-01-25T10:50:48;4.80;99.90
18073;DHT22;9161;47.348;9.648;2023-01-25T10:55:57;5.70;99.90
18073;DHT22;9161;47.348;9.648;2023-01-25T11:01:00;6.20;99.90
18073;DHT22;9161;47.348;9.648;2023-01-25T11:06:06;7.70;99.90
18073;DHT22;9161;47.348;9.648;2023-01-25T11:11:24;7.70;99.90
18073;DHT22;9161;47.348;9.648;2023-01-25T11:16:32;7.10;99.90
18073;DHT22;9161;47.348;9.648;2023-01-25T11:21:36;6.50;99.90
18073;DHT22;9161;47.348;9.648;2023-01-25T11:27:11;6.40;99.90
18073;DHT22;9161;47.348;9.648;2023-01-25T11:32:16;6.50;99.90
18073;DHT22;9161;47.348;9.648;2023-01-25T11:37:34;7.20;99.90
18073;DHT22;9161;47.348;9.648;2023-01-25T11:42:50;7.50;99.90
18073;DHT22;9161;47.348;9.648;2023-01-25T11:48:09;7.50;99.90
18073;DHT22;9161;47.348;9.648;2023-01-25T11:53:28;7.10;99.90
18073;DHT22;9161;47.348;9.648;2023-01-25T11:58:52;7.30;99.90
18073;DHT22;9161;47.348;9.648;2023-01-25T12:10:03;7.10;99.90
18073;DHT22;9161;47.348;9.648;2023-01-25T12:15:26;6.30;99.90
18073;DHT22;9161;47.348;9.648;2023-01-25T12:20:52;6.00;99.90
18073;DHT22;9161;47.348;9.648;2023-01-25T12:26:11;5.70;99.90
18073;DHT22;9161;47.348;9.648;2023-01-25T12:31:20;5.50;99.90
18073;DHT22;9161;47.348;9.648;2023-01-25T12:36:26;5.00;99.90
18073;DHT22;9161;47.348;9.648;2023-01-25T12:41:38;4.90;99.90
18073;DHT22;9161;47.348;9.648;2023-01-25T12:46:44;4.70;99.90
18073;DHT22;9161;47.348;9.648;2023-01-25T12:51:49;4.30;99.90
18073;DHT22;9161;47.348;9.648;2023-01-25T12:56:59;4.00;99.90
18073;DHT22;9161;47.348;9.648;2023-01-25T13:02:14;4.10;99.90
18073;DHT22;9161;47.348;9.648;2023-01-25T13:07:25;4.20;99.90
18073;DHT22;9161;47.348;9.648;2023-01-25T13:12:49;4.10;99.90
18073;DHT22;9161;47.348;9.648;2023-01-25T13:17:52;4.10;99.90
18073;DHT22;9161;47.348;9.648;2023-01-25T13:22:56;3.90;99.90
18073;DHT22;9161;47.348;9.648;2023-01-25T13:33:40;3.90;99.90
18073;DHT22;9161;47.348;9.648;2023-01-25T13:38:42;3.80;99.90
18073;DHT22;9161;47.348;9.648;2023-01-25T13:43:52;3.90;99.90
18073;DHT22;9161;47.348;9.648;2023-01-25T13:49:02;3.90;99.90
18073;DHT22;9161;47.348;9.648;2023-01-25T13:54:04;3.70;99.90
18073;DHT22;9161;47.348;9.648;2023-01-25T13:59:23;3.50;99.90
18073;DHT22;9161;47.348;9.648;2023-01-25T14:04:27;3.00;99.90
18073;DHT22;9161;47.348;9.648;2023-01-25T14:09:30;3.00;99.90
18073;DHT22;9161;47.348;9.648;2023-01-25T14:14:34;3.00;99.90
18073;DHT22;9161;47.348;9.648;2023-01-25T14:19:38;2.90;99.90
18073;DHT22;9161;47.348;9.648;2023-01-25T14:24:41;2.80;99.90
18073;DHT22;9161;47.348;9.648;2023-01-25T14:29:47;2.70;99.90
18073;DHT22;9161;47.348;9.648;2023-01-25T14:34:51;2.50;99.90
18073;DHT22;9161;47.348;9.648;2023-01-25T14:39:53;2.50;99.90
18073;DHT22;9161;47.348;9.648;2023-01-25T14:44:55;2.60;99.90
18073;DHT22;9161;47.348;9.648;2023-01-25T14:50:32;2.50;99.90
18073;DHT22;9161;47.348;9.648;2023-01-25T14:55:35;2.40;99.90
18073;DHT22;9161;47.348;9.648;2023-01-25T15:00:38;2.30;99.90
18073;DHT22;9161;47.348;9.648;2023-01-25T15:05:44;2.30;99.90
18073;DHT22;9161;47.348;9.648;2023-01-25T15:10:51;2.40;99.90
18073;DHT22;9161;47.348;9.648;2023-01-25T15:15:54;2.20;99.90
18073;DHT22;9161;47.348;9.648;2023-01-25T15:20:59;2.20;99.90
18073;DHT22;9161;47.348;9.648;2023-01-25T15:26:01;2.20;99.90
18073;DHT22;9161;47.348;9.648;2023-01-25T15:31:16;2.20;99.90
18073;DHT22;9161;47.348;9.648;2023-01-25T15:36:20;2.10;99.90
18073;DHT22;9161;47.348;9.648;2023-01-25T15:41:22;2.00;99.90
18073;DHT22;9161;47.348;9.648;2023-01-25T15:46:26;1.90;99.90
18073;DHT22;9161;47.348;9.648;2023-01-25T15:51:30;1.80;99.90
18073;DHT22;9161;47.348;9.648;2023-01-25T15:56:36;1.80;99.90
18073;DHT22;9161;47.348;9.648;2023-01-25T16:01:38;1.80;99.90
18073;DHT22;9161;47.348;9.648;2023-01-25T16:06:44;1.70;99.90
18073;DHT22;9161;47.348;9.648;2023-01-25T16:11:49;1.70;99.90
18073;DHT22;9161;47.348;9.648;2023-01-25T16:16:52;1.60;99.90
18073;DHT22;9161;47.348;9.648;2023-01-25T16:21:57;1.60;99.90
18073;DHT22;9161;47.348;9.648;2023-01-25T16:27:00;1.60;99.90
18073;DHT22;9161;47.348;9.648;2023-01-25T16:32:02;1.60;99.90
18073;DHT22;9161;47.348;9.648;2023-01-25T16:37:08;1.60;99.90
18073;DHT22;9161;47.348;9.648;2023-01-25T16:42:12;1.50;99.90
18073;DHT22;9161;47.348;9.648;2023-01-25T16:47:16;1.50;99.90
18073;DHT22;9161;47.348;9.648;2023-01-25T16:52:25;1.60;99.90
18073;DHT22;9161;47.348;9.648;2023-01-25T16:57:28;1.50;99.90
18073;DHT22;9161;47.348;9.648;2023-01-25T17:02:31;1.40;99.90
18073;DHT22;9161;47.348;9.648;2023-01-25T17:07:35;1.40;99.90
18073;DHT22;9161;47.348;9.648;2023-01-25T17:12:38;1.40;99.90
18073;DHT22;9161;47.348;9.648;2023-01-25T17:17:41;1.40;99.90
18073;DHT22;9161;47.348;9.648;2023-01-25T17:22:47;1.40;99.90
18073;DHT22;9161;47.348;9.648;2023-01-25T17:27:51;1.40;99.90
18073;DHT22;9161;47.348;9.648;2023-01-25T17:32:55;1.40;99.90
18073;DHT22;9161;47.348;9.648;2023-01-25T17:38:01;1.50;99.90
18073;DHT22;9161;47.348;9.648;2023-01-25T17:43:05;1.40;99.90
18073;DHT22;9161;47.348;9.648;2023-01-25T17:48:08;1.50;99.90
18073;DHT22;9161;47.348;9.648;2023-01-25T17:53:14;1.50;99.90
18073;DHT22;9161;47.348;9.648;2023-01-25T17:58:18;1.40;99.90
18073;DHT22;9161;47.348;9.648;2023-01-25T18:03:22;1.40;99.90
18073;DHT22;9161;47.348;9.648;2023-01-25T18:08:28;1.40;99.90
18073;DHT22;9161;47.348;9.648;2023-01-25T18:13:32;1.40;99.90
18073;DHT22;9161;47.348;9.648;2023-01-25T18:18:36;1.30;99.90
18073;DHT22;9161;47.348;9.648;2023-01-25T18:23:45;1.30;99.90
18073;DHT22;9161;47.348;9.648;2023-01-25T18:28:53;1.40;99.90
18073;DHT22;9161;47.348;9.648;2023-01-25T18:33:58;1.40;99.90
18073;DHT22;9161;47.348;9.648;2023-01-25T18:39:04;1.30;99.90
18073;DHT22;9161;47.348;9.648;2023-01-25T18:44:09;1.30;99.90
18073;DHT22;9161;47.348;9.648;2023-01-25T18:49:12;1.40;99.90
18073;DHT22;9161;47.348;9.648;2023-01-25T18:54:17;1.40;99.90
18073;DHT22;9161;47.348;9.648;2023-01-25T18:59:23;1.40;99.90
18073;DHT22;9161;47.348;9.648;2023-01-25T19:04:26;1.30;99.90
18073;DHT22;9161;47.348;9.648;2023-01-25T19:09:31;1.30;99.90
18073;DHT22;9161;47.348;9.648;2023-01-25T19:14:35;1.30;99.90
18073;DHT22;9161;47.348;9.648;2023-01-25T19:19:41;1.20;99.90
18073;DHT22;9161;47.348;9.648;2023-01-25T19:24:46;1.20;99.90
18073;DHT22;9161;47.348;9.648;2023-01-25T19:29:52;1.20;99.90
18073;DHT22;9161;47.348;9.648;2023-01-25T19:34:56;1.20;99.90
18073;DHT22;9161;47.348;9.648;2023-01-25T19:40:02;1.50;99.90
18073;DHT22;9161;47.348;9.648;2023-01-25T19:45:08;1.30;99.90
18073;DHT22;9161;47.348;9.648;2023-01-25T19:50:14;1.20;99.90
18073;DHT22;9161;47.348;9.648;2023-01-25T19:55:19;1.20;99.90
18073;DHT22;9161;47.348;9.648;2023-01-25T20:00:26;1.10;99.90
18073;DHT22;9161;47.348;9.648;2023-01-25T20:05:55;1.10;99.90
18073;DHT22;9161;47.348;9.648;2023-01-25T20:11:14;1.10;99.90
18073;DHT22;9161;47.348;9.648;2023-01-25T20:21:51;1.00;99.90
18073;DHT22;9161;47.348;9.648;2023-01-25T20:26:55;1.00;99.90
18073;DHT22;9161;47.348;9.648;2023-01-25T20:32:04;1.00;99.90
18073;DHT22;9161;47.348;9.648;2023-01-25T20:37:10;1.00;99.90
18073;DHT22;9161;47.348;9.648;2023-01-25T20:42:16;1.00;99.90
18073;DHT22;9161;47.348;9.648;2023-01-25T20:47:20;1.00;99.90
18073;DHT22;9161;47.348;9.648;2023-01-25T20:52:25;1.00;99.90
18073;DHT22;9161;47.348;9.648;2023-01-25T20:57:35;1.00;99.90
18073;DHT22;9161;47.348;9.648;2023-01-25T21:02:40;1.00;99.90
18073;DHT22;9161;47.348;9.648;2023-01-25T21:07:45;0.90;99.90
18073;DHT22;9161;47.348;9.648;2023-01-25T21:12:51;0.90;99.90
18073;DHT22;9161;47.348;9.648;2023-01-25T21:17:57;0.90;99.90
18073;DHT22;9161;47.348;9.648;2023-01-25T21:23:02;0.90;99.90
18073;DHT22;9161;47.348;9.648;2023-01-25T21:28:09;0.90;99.90
18073;DHT22;9161;47.348;9.648;2023-01-25T21:33:13;0.90;99.90
18073;DHT22;9161;47.348;9.648;2023-01-25T21:38:16;0.90;99.90
18073;DHT22;9161;47.348;9.648;2023-01-25T21:43:24;0.90;99.90
18073;DHT22;9161;47.348;9.648;2023-01-25T21:48:26;0.90;99.90
18073;DHT22;9161;47.348;9.648;2023-01-25T21:53:48;0.90;99.90
18073;DHT22;9161;47.348;9.648;2023-01-25T21:58:52;0.90;99.90
18073;DHT22;9161;47.348;9.648;2023-01-25T22:03:55;0.90;99.90
18073;DHT22;9161;47.348;9.648;2023-01-25T22:08:57;0.90;99.90
18073;DHT22;9161;47.348;9.648;2023-01-25T22:14:01;1.00;99.90
18073;DHT22;9161;47.348;9.648;2023-01-25T22:19:04;1.00;99.90
18073;DHT22;9161;47.348;9.648;2023-01-25T22:24:08;1.00;99.90
18073;DHT22;9161;47.348;9.648;2023-01-25T22:29:12;1.00;99.90
18073;DHT22;9161;47.348;9.648;2023-01-25T22:34:15;1.00;99.90
18073;DHT22;9161;47.348;9.648;2023-01-25T22:39:17;0.80;99.90
18073;DHT22;9161;47.348;9.648;2023-01-25T22:44:20;0.70;99.90
18073;DHT22;9161;47.348;9.648;2023-01-25T22:49:22;0.70;99.90
18073;DHT22;9161;47.348;9.648;2023-01-25T22:54:25;0.70;99.90
18073;DHT22;9161;47.348;9.648;2023-01-25T22:59:29;0.60;99.90
18073;DHT22;9161;47.348;9.648;2023-01-25T23:04:31;0.60;99.90
18073;DHT22;9161;47.348;9.648;2023-01-25T23:09:34;0.60;99.90
18073;DHT22;9161;47.348;9.648;2023-01-25T23:14:37;0.50;99.90
18073;DHT22;9161;47.348;9.648;2023-01-25T23:19:51;0.50;99.90
18073;DHT22;9161;47.348;9.648;2023-01-25T23:24:53;0.50;99.90
18073;DHT22;9161;47.348;9.648;2023-01-25T23:29:57;0.60;99.90
18073;DHT22;9161;47.348;9.648;2023-01-25T23:34:59;0.60;99.90
18073;DHT22;9161;47.348;9.648;2023-01-25T23:40:01;0.60;99.90
18073;DHT22;9161;47.348;9.648;2023-01-25T23:45:06;0.50;99.90
18073;DHT22;9161;47.348;9.648;2023-01-25T23:50:10;0.60;99.90
18073;DHT22;9161;47.348;9.648;2023-01-25T23:55:13;0.50;99.90
